Athol Springs, New York
Current Conditions -  °F | °C
As of 7:54 AM on Friday 19 Dec 2014 (Local Time) from KBUF Reporting Station
Light Snow Light Snow  
Wind Chill: -7°   Ceiling: 1200
Heat Index: -3°   Visibility: 9mi
Dew Point: -6°   Wind: 6mph
Humidity: 81%   Direction: 300°WNW
Pressure: 30.15"   Gusts: NA
Location:  42.77°N, 78.87°W
Report Text: KBUF 191254Z 30005KT 9SM -SN OVC012 M03/M06 A3015 RMK AO2 SLP220 PCPN VRY LGT P0000 T10331061
Loading
Personal Weather Stations






























Interactive Weather Map New forecast layout! Learn more

10-Day Weather Forecast

Advertisements
Track Severe Weather on mobile